createdAt,value
2022-12-25T00:01:18.064Z,8.80
2022-12-25T00:03:45.085Z,8.80
2022-12-25T00:06:12.107Z,8.80
2022-12-25T00:08:40.208Z,8.90
2022-12-25T00:11:14.699Z,9.00
2022-12-25T00:13:42.394Z,9.00
2022-12-25T00:16:16.774Z,9.00
2022-12-25T00:18:43.798Z,8.90
2022-12-25T00:21:11.895Z,9.10
2022-12-25T00:23:39.250Z,9.00
2022-12-25T00:26:15.537Z,9.10
2022-12-25T00:28:43.132Z,9.10
2022-12-25T00:31:19.419Z,9.10
2022-12-25T00:33:48.461Z,9.10
2022-12-25T00:36:17.427Z,9.10
2022-12-25T00:38:45.179Z,9.10
2022-12-25T00:41:17.419Z,9.20
2022-12-25T00:43:44.399Z,9.10
2022-12-25T00:46:13.103Z,9.10
2022-12-25T00:48:41.752Z,9.10
2022-12-25T00:51:11.598Z,9.10
2022-12-25T00:53:38.495Z,9.00
2022-12-25T00:56:07.605Z,9.00
2022-12-25T00:58:35.427Z,9.10
2022-12-25T01:01:02.968Z,9.20
2022-12-25T01:03:30.113Z,9.10
2022-12-25T01:06:00.082Z,9.10
2022-12-25T01:08:29.303Z,9.10
2022-12-25T01:11:05.851Z,9.20
2022-12-25T01:13:35.049Z,9.20
2022-12-25T01:16:11.830Z,9.20
2022-12-25T01:18:39.285Z,9.20
2022-12-25T01:21:11.967Z,9.20
2022-12-25T01:23:39.471Z,9.20
2022-12-25T01:26:07.754Z,9.10
2022-12-25T01:28:35.183Z,9.20
2022-12-25T01:31:02.504Z,9.10
2022-12-25T01:33:29.917Z,9.20
2022-12-25T01:35:58.677Z,9.20
2022-12-25T01:38:25.827Z,9.30
2022-12-25T01:40:53.028Z,9.20
2022-12-25T01:43:31.474Z,9.30
2022-12-25T01:45:59.329Z,9.20
2022-12-25T01:48:30.884Z,9.20
2022-12-25T01:51:01.562Z,9.20
2022-12-25T01:53:29.187Z,9.30
2022-12-25T01:56:05.678Z,9.30
2022-12-25T01:58:32.712Z,9.40
2022-12-25T02:00:59.665Z,9.30
2022-12-25T02:03:30.168Z,9.30
2022-12-25T02:05:57.938Z,9.30
2022-12-25T02:08:25.120Z,9.30
2022-12-25T02:10:51.967Z,9.30
2022-12-25T02:13:20.371Z,9.30
2022-12-25T02:16:07.255Z,9.40
2022-12-25T02:18:34.079Z,9.40
2022-12-25T02:21:13.878Z,9.40
2022-12-25T02:24:01.929Z,9.50
2022-12-25T02:26:37.406Z,9.40
2022-12-25T02:29:29.173Z,9.40
2022-12-25T02:32:01.851Z,9.40
2022-12-25T02:34:44.703Z,9.40
2022-12-25T02:37:26.533Z,9.40
2022-12-25T02:40:15.178Z,9.50
2022-12-25T02:43:14.434Z,9.50
2022-12-25T02:46:19.172Z,9.40
2022-12-25T02:49:12.216Z,9.40
2022-12-25T02:52:01.833Z,9.50
2022-12-25T02:54:56.035Z,9.50
2022-12-25T02:57:50.839Z,9.50
2022-12-25T03:00:37.055Z,9.60
2022-12-25T03:03:28.538Z,9.60
2022-12-25T03:06:20.008Z,9.60
2022-12-25T03:08:51.949Z,9.70
2022-12-25T03:11:34.133Z,9.60
2022-12-25T03:14:21.932Z,9.60
2022-12-25T03:16:53.828Z,9.50
2022-12-25T03:19:42.879Z,9.50
2022-12-25T03:22:33.024Z,9.40
2022-12-25T03:25:19.040Z,9.40
2022-12-25T03:27:48.031Z,9.40
2022-12-25T03:30:33.718Z,9.60
2022-12-25T03:33:43.408Z,9.60
2022-12-25T03:36:26.158Z,9.50
2022-12-25T03:39:07.379Z,9.50
2022-12-25T03:42:10.657Z,9.60
2022-12-25T03:44:45.740Z,9.60
2022-12-25T03:47:38.570Z,9.60
2022-12-25T03:50:54.300Z,9.60
2022-12-25T03:53:46.144Z,9.60
2022-12-25T03:56:32.678Z,9.60
2022-12-25T03:59:23.421Z,9.60
2022-12-25T04:02:10.058Z,9.60
2022-12-25T04:04:56.491Z,9.60
2022-12-25T04:07:41.746Z,9.60
2022-12-25T04:10:28.280Z,9.60
2022-12-25T04:13:13.491Z,9.50
2022-12-25T04:16:00.893Z,9.60
2022-12-25T04:18:46.850Z,9.60
2022-12-25T04:21:32.132Z,9.50
2022-12-25T04:24:17.599Z,9.50
2022-12-25T04:27:03.194Z,9.50
2022-12-25T04:29:48.500Z,9.50
2022-12-25T04:32:33.854Z,9.60
2022-12-25T04:35:19.339Z,9.50
2022-12-25T04:37:46.233Z,9.50
2022-12-25T04:40:13.449Z,9.50
2022-12-25T04:42:40.358Z,9.50
2022-12-25T04:45:07.797Z,9.50
2022-12-25T04:47:34.846Z,9.60
2022-12-25T04:50:01.880Z,9.60
2022-12-25T04:52:28.872Z,9.60
2022-12-25T04:54:55.716Z,9.60
2022-12-25T04:57:22.556Z,9.70
2022-12-25T04:59:49.395Z,9.70
2022-12-25T05:02:16.317Z,9.70
2022-12-25T05:04:43.293Z,9.70
2022-12-25T05:07:10.127Z,9.70
2022-12-25T05:09:36.985Z,9.60
2022-12-25T05:12:04.083Z,9.60
2022-12-25T05:14:30.936Z,9.70
2022-12-25T05:16:57.780Z,9.60
2022-12-25T05:19:24.689Z,9.70
2022-12-25T05:21:51.459Z,9.70
2022-12-25T05:24:18.431Z,9.70
2022-12-25T05:26:45.384Z,9.80
2022-12-25T05:29:12.238Z,9.80
2022-12-25T05:31:39.171Z,9.80
2022-12-25T05:34:06.027Z,9.80
2022-12-25T05:36:32.891Z,9.80
2022-12-25T05:38:59.659Z,9.80
2022-12-25T05:41:34.274Z,9.90
2022-12-25T05:44:01.771Z,9.90
2022-12-25T05:46:28.733Z,9.90
2022-12-25T05:48:55.668Z,9.90
2022-12-25T05:51:22.542Z,10.00
2022-12-25T05:53:49.336Z,10.00
2022-12-25T05:56:16.173Z,10.00
2022-12-25T05:58:43.709Z,10.00
2022-12-25T06:01:20.279Z,10.00
2022-12-25T06:03:47.269Z,9.90
2022-12-25T06:06:15.042Z,9.90
2022-12-25T06:08:41.932Z,9.90
2022-12-25T06:11:10.753Z,10.00
2022-12-25T06:13:37.769Z,10.00
2022-12-25T06:16:10.080Z,10.00
2022-12-25T06:18:38.499Z,10.00
2022-12-25T06:21:10.267Z,10.10
2022-12-25T06:23:38.387Z,10.00
2022-12-25T06:26:07.497Z,10.10
2022-12-25T06:28:34.507Z,10.00
2022-12-25T06:31:10.230Z,10.00
2022-12-25T06:33:37.770Z,9.90
2022-12-25T06:36:10.180Z,9.90
2022-12-25T06:38:37.041Z,10.00
2022-12-25T06:41:12.316Z,9.90
2022-12-25T06:43:39.220Z,9.90
2022-12-25T06:46:12.038Z,9.90
2022-12-25T06:48:40.750Z,9.90
2022-12-25T06:51:08.066Z,9.80
2022-12-25T06:53:40.282Z,9.80
2022-12-25T06:56:10.758Z,9.80
2022-12-25T06:58:38.049Z,9.80
2022-12-25T07:01:15.509Z,9.90
2022-12-25T07:03:44.788Z,9.90
2022-12-25T07:06:11.825Z,9.90
2022-12-25T07:08:38.725Z,9.90
2022-12-25T07:11:07.080Z,10.00
2022-12-25T07:13:34.060Z,9.90
2022-12-25T07:16:03.227Z,9.90
2022-12-25T07:18:31.042Z,9.90
2022-12-25T07:20:59.739Z,9.90
2022-12-25T07:23:27.354Z,9.90
2022-12-25T07:25:58.970Z,9.90
2022-12-25T07:28:27.115Z,9.90
2022-12-25T07:30:54.055Z,10.00
2022-12-25T07:33:20.987Z,10.00
2022-12-25T07:35:47.921Z,10.00
2022-12-25T07:38:14.755Z,10.00
2022-12-25T07:40:44.694Z,10.00
2022-12-25T07:43:11.506Z,10.10
2022-12-25T07:45:38.582Z,10.10
2022-12-25T07:48:08.418Z,10.00
2022-12-25T07:50:38.757Z,10.00
2022-12-25T07:53:05.766Z,10.10
2022-12-25T07:55:32.589Z,10.10
2022-12-25T07:57:59.395Z,10.00
2022-12-25T08:00:32.812Z,10.00
2022-12-25T08:03:00.401Z,10.00
2022-12-25T08:05:27.645Z,10.00
2022-12-25T08:07:58.337Z,10.00
2022-12-25T08:10:25.601Z,10.00
2022-12-25T08:12:56.534Z,10.10
2022-12-25T08:15:23.527Z,10.10
2022-12-25T08:17:50.348Z,10.00
2022-12-25T08:20:17.212Z,10.10
2022-12-25T08:22:44.216Z,10.20
2022-12-25T08:25:11.279Z,10.20
2022-12-25T08:27:38.273Z,10.20
2022-12-25T08:30:05.708Z,10.20
2022-12-25T08:32:33.847Z,10.20
2022-12-25T08:35:00.781Z,10.20
2022-12-25T08:37:30.354Z,10.20
2022-12-25T08:40:00.344Z,10.20
2022-12-25T08:42:30.067Z,10.20
2022-12-25T08:44:59.097Z,10.30
2022-12-25T08:47:26.189Z,10.40
2022-12-25T08:49:53.155Z,10.40
2022-12-25T08:52:20.028Z,10.30
2022-12-25T08:54:47.272Z,10.30
2022-12-25T08:57:14.121Z,10.20
2022-12-25T08:59:40.998Z,10.20
2022-12-25T09:02:09.713Z,10.30
2022-12-25T09:04:36.676Z,10.30
2022-12-25T09:07:03.689Z,10.30
2022-12-25T09:09:30.683Z,10.30
2022-12-25T09:11:57.641Z,10.30
2022-12-25T09:14:24.389Z,10.30
2022-12-25T09:16:51.313Z,10.20
2022-12-25T09:19:18.256Z,10.20
2022-12-25T09:21:45.167Z,10.20
2022-12-25T09:24:11.987Z,10.20
2022-12-25T09:26:39.011Z,10.20
2022-12-25T09:29:05.853Z,10.20
2022-12-25T09:31:32.789Z,10.10
2022-12-25T09:33:59.781Z,10.10
2022-12-25T09:36:27.273Z,10.10
2022-12-25T09:38:54.085Z,10.10
2022-12-25T09:41:55.171Z,10.10
2022-12-25T09:44:27.310Z,10.10
2022-12-25T09:47:40.643Z,10.10
2022-12-25T09:50:11.491Z,10.10
2022-12-25T09:52:43.860Z,10.10
2022-12-25T09:55:21.134Z,10.10
2022-12-25T09:57:54.877Z,10.10
2022-12-25T10:00:24.132Z,10.00
2022-12-25T10:03:03.320Z,10.00
2022-12-25T10:05:36.053Z,10.00
2022-12-25T10:08:21.830Z,10.00
2022-12-25T10:10:59.127Z,10.00
2022-12-25T10:13:54.787Z,9.90
2022-12-25T10:16:30.442Z,10.00
2022-12-25T10:19:03.209Z,10.00
2022-12-25T10:21:31.314Z,10.00
2022-12-25T10:24:07.123Z,9.90
2022-12-25T10:26:35.512Z,9.90
2022-12-25T10:29:05.898Z,10.00
2022-12-25T10:31:36.251Z,10.00
2022-12-25T10:34:04.563Z,10.00
2022-12-25T10:36:32.435Z,10.00
2022-12-25T10:38:59.528Z,10.00
2022-12-25T10:42:10.460Z,10.00
2022-12-25T10:44:37.526Z,10.00
2022-12-25T10:47:05.107Z,10.00
2022-12-25T10:49:38.590Z,10.00
2022-12-25T10:52:23.791Z,10.00
2022-12-25T10:54:50.757Z,10.00
2022-12-25T10:57:21.723Z,10.10
2022-12-25T10:59:56.175Z,10.00
2022-12-25T11:02:28.006Z,10.10
2022-12-25T11:05:05.796Z,10.10
2022-12-25T11:07:35.100Z,10.10
2022-12-25T11:10:06.101Z,10.10
2022-12-25T11:12:38.265Z,10.10
2022-12-25T11:15:27.795Z,10.10
2022-12-25T11:17:54.669Z,10.10
2022-12-25T11:20:22.444Z,10.10
2022-12-25T11:22:51.078Z,10.10
2022-12-25T11:25:28.355Z,10.10
2022-12-25T11:28:03.269Z,10.10
2022-12-25T11:30:32.775Z,10.10
2022-12-25T11:33:10.914Z,10.10
2022-12-25T11:35:53.566Z,10.10
2022-12-25T11:38:20.822Z,10.10
2022-12-25T11:40:51.555Z,10.10
2022-12-25T11:43:27.981Z,10.00
2022-12-25T11:46:14.050Z,10.10
2022-12-25T11:48:50.132Z,10.10
2022-12-25T11:51:18.661Z,10.10
2022-12-25T11:53:59.191Z,10.10
2022-12-25T11:56:28.631Z,10.10
2022-12-25T11:59:06.387Z,10.10
2022-12-25T12:01:46.142Z,10.10
2022-12-25T12:04:36.916Z,10.10
2022-12-25T12:07:25.554Z,10.10
2022-12-25T12:10:01.968Z,10.10
2022-12-25T12:12:56.703Z,10.10
2022-12-25T12:15:39.281Z,10.10
2022-12-25T12:18:20.943Z,10.20
2022-12-25T12:21:01.543Z,10.20
2022-12-25T12:23:30.973Z,10.20
2022-12-25T12:25:58.597Z,10.20
2022-12-25T12:28:31.313Z,10.20
2022-12-25T12:31:05.791Z,10.20
2022-12-25T12:33:43.089Z,10.20
2022-12-25T12:36:14.789Z,10.20
2022-12-25T12:38:44.243Z,10.20
2022-12-25T12:41:14.301Z,10.30
2022-12-25T12:43:53.149Z,10.20
2022-12-25T12:46:31.578Z,10.20
2022-12-25T12:49:29.308Z,10.20
2022-12-25T12:52:07.387Z,10.20
2022-12-25T12:54:59.442Z,10.20
2022-12-25T12:57:29.902Z,10.30
2022-12-25T13:00:08.684Z,10.20
2022-12-25T13:02:40.752Z,10.20
2022-12-25T13:05:34.883Z,10.20
2022-12-25T13:08:11.087Z,10.20
2022-12-25T13:10:43.770Z,10.20
2022-12-25T13:13:28.400Z,10.20
2022-12-25T13:15:57.639Z,10.20
2022-12-25T13:18:24.580Z,10.20
2022-12-25T13:20:59.617Z,10.30
2022-12-25T13:23:37.521Z,10.30
2022-12-25T13:26:17.989Z,10.30
2022-12-25T13:28:46.922Z,10.30
2022-12-25T13:31:16.157Z,10.30
2022-12-25T13:34:22.243Z,10.30
2022-12-25T13:36:49.439Z,10.30
2022-12-25T13:39:17.690Z,10.30
2022-12-25T13:42:05.749Z,10.30
2022-12-25T13:44:53.205Z,10.40
2022-12-25T13:47:29.798Z,10.30
2022-12-25T13:49:58.900Z,10.30
2022-12-25T13:52:34.469Z,10.40
2022-12-25T13:55:11.634Z,10.40
2022-12-25T13:57:41.705Z,10.40
2022-12-25T14:00:19.244Z,10.40
2022-12-25T14:02:46.950Z,10.40
2022-12-25T14:05:42.218Z,10.40
2022-12-25T14:08:24.437Z,10.40
2022-12-25T14:10:53.162Z,10.40
2022-12-25T14:13:23.594Z,10.30
2022-12-25T14:15:51.267Z,10.40
2022-12-25T14:18:20.858Z,10.40
2022-12-25T14:21:10.225Z,10.40
2022-12-25T14:23:47.282Z,10.40
2022-12-25T14:26:32.815Z,10.40
2022-12-25T14:29:05.591Z,10.40
2022-12-25T14:31:33.736Z,10.40
2022-12-25T14:34:02.436Z,10.40
2022-12-25T14:36:30.790Z,10.40
2022-12-25T14:38:59.861Z,10.40
2022-12-25T14:41:34.758Z,10.40
2022-12-25T14:44:03.696Z,10.40
2022-12-25T14:46:32.625Z,10.40
2022-12-25T14:49:05.286Z,10.40
2022-12-25T14:51:35.274Z,10.40
2022-12-25T14:54:14.176Z,10.40
2022-12-25T14:56:51.057Z,10.40
2022-12-25T14:59:21.202Z,10.40
2022-12-25T15:02:01.293Z,10.40
2022-12-25T15:04:29.604Z,10.40
2022-12-25T15:07:07.405Z,10.50
2022-12-25T15:09:36.006Z,10.50
2022-12-25T15:12:03.297Z,10.50
2022-12-25T15:14:31.528Z,10.50
2022-12-25T15:17:01.471Z,10.50
2022-12-25T15:19:37.784Z,10.50
2022-12-25T15:22:05.845Z,10.50
2022-12-25T15:24:33.409Z,10.50
2022-12-25T15:27:00.817Z,10.60
2022-12-25T15:30:00.217Z,10.60
2022-12-25T15:32:21.527Z,10.50
2022-12-25T15:34:50.091Z,10.60
2022-12-25T15:37:18.191Z,10.70
2022-12-25T15:39:45.780Z,10.70
2022-12-25T15:42:17.903Z,10.70
2022-12-25T15:44:45.462Z,10.70
2022-12-25T15:47:14.468Z,10.60
2022-12-25T15:49:42.230Z,10.70
2022-12-25T15:52:13.881Z,10.60
2022-12-25T15:54:41.013Z,10.70
2022-12-25T15:57:16.932Z,10.70
2022-12-25T15:59:46.549Z,10.70
2022-12-25T16:02:19.773Z,10.70
2022-12-25T16:04:46.719Z,10.70
2022-12-25T16:07:19.399Z,10.70
2022-12-25T16:09:46.556Z,10.70
2022-12-25T16:12:13.519Z,10.70
2022-12-25T16:14:40.398Z,10.70
2022-12-25T16:17:07.475Z,10.70
2022-12-25T16:19:34.287Z,10.70
2022-12-25T16:22:01.164Z,10.80
2022-12-25T16:24:28.185Z,10.80
2022-12-25T16:26:54.969Z,10.80
2022-12-25T16:29:21.955Z,10.80
2022-12-25T16:31:48.902Z,10.80
2022-12-25T16:34:15.743Z,10.80
2022-12-25T16:36:42.701Z,10.80
2022-12-25T16:39:09.569Z,10.90
2022-12-25T16:41:36.391Z,10.90
2022-12-25T16:44:11.312Z,10.90
2022-12-25T16:46:40.184Z,10.90
2022-12-25T16:49:07.211Z,10.90
2022-12-25T16:51:34.264Z,10.90
2022-12-25T16:54:01.135Z,10.90
2022-12-25T16:56:28.407Z,10.90
2022-12-25T16:58:57.929Z,10.90
2022-12-25T17:01:28.259Z,10.90
2022-12-25T17:03:58.216Z,10.90
2022-12-25T17:06:28.360Z,10.90
2022-12-25T17:08:59.074Z,10.90
2022-12-25T17:11:29.871Z,10.90
2022-12-25T17:14:02.751Z,11.00
2022-12-25T17:16:32.775Z,11.00
2022-12-25T17:19:05.592Z,11.00
2022-12-25T17:21:36.938Z,11.00
2022-12-25T17:24:04.498Z,11.00
2022-12-25T17:26:32.840Z,11.00
2022-12-25T17:29:00.382Z,11.00
2022-12-25T17:31:28.027Z,11.00
2022-12-25T17:33:54.860Z,11.00
2022-12-25T17:36:22.617Z,11.00
2022-12-25T17:38:49.737Z,11.10
2022-12-25T17:41:18.469Z,11.10
2022-12-25T17:43:46.044Z,11.10
2022-12-25T17:46:18.263Z,11.10
2022-12-25T17:48:46.286Z,11.10
2022-12-25T17:51:16.329Z,11.10
2022-12-25T17:53:45.505Z,11.10
2022-12-25T17:56:13.781Z,11.10
2022-12-25T17:58:41.077Z,11.10
2022-12-25T18:01:10.543Z,11.10
2022-12-25T18:03:37.576Z,11.10
2022-12-25T18:06:06.796Z,11.10
2022-12-25T18:08:39.307Z,11.10
2022-12-25T18:11:15.226Z,11.10
2022-12-25T18:13:48.562Z,11.10
2022-12-25T18:16:17.327Z,11.10
2022-12-25T18:18:51.411Z,11.10
2022-12-25T18:21:19.895Z,11.20
2022-12-25T18:23:46.992Z,11.20
2022-12-25T18:26:14.023Z,11.20
2022-12-25T18:28:42.905Z,11.20
2022-12-25T18:31:19.425Z,11.30
2022-12-25T18:33:46.924Z,11.30
2022-12-25T18:36:15.526Z,11.30
2022-12-25T18:38:42.960Z,11.40
2022-12-25T18:41:10.733Z,11.40
2022-12-25T18:43:53.185Z,11.40
2022-12-25T18:46:25.547Z,11.40
2022-12-25T18:48:56.771Z,11.50
2022-12-25T18:51:24.203Z,11.50
2022-12-25T18:53:51.338Z,11.50
2022-12-25T18:56:18.642Z,11.50
2022-12-25T18:58:46.815Z,11.40
2022-12-25T19:01:15.294Z,11.40
2022-12-25T19:03:42.763Z,11.40
2022-12-25T19:06:15.816Z,11.30
2022-12-25T19:08:42.698Z,11.30
2022-12-25T19:11:09.718Z,11.20
2022-12-25T19:13:36.701Z,11.20
2022-12-25T19:16:04.045Z,11.20
2022-12-25T19:18:31.209Z,11.20
2022-12-25T19:21:05.200Z,11.20
2022-12-25T19:23:32.119Z,11.10
2022-12-25T19:25:59.277Z,11.10
2022-12-25T19:28:29.183Z,11.10
2022-12-25T19:31:00.001Z,11.10
2022-12-25T19:33:27.785Z,11.10
2022-12-25T19:35:58.734Z,11.10
2022-12-25T19:38:25.741Z,11.00
2022-12-25T19:41:01.376Z,11.00
2022-12-25T19:43:30.339Z,11.10
2022-12-25T19:45:57.704Z,11.00
2022-12-25T19:48:24.760Z,11.00
2022-12-25T19:50:52.174Z,11.00
2022-12-25T19:53:21.391Z,11.00
2022-12-25T19:55:48.392Z,11.00
2022-12-25T19:58:15.242Z,11.00
2022-12-25T20:00:42.464Z,11.00
2022-12-25T20:03:09.820Z,11.00
2022-12-25T20:05:37.230Z,11.00
2022-12-25T20:08:04.106Z,11.00
2022-12-25T20:10:31.069Z,11.00
2022-12-25T20:12:57.987Z,11.00
2022-12-25T20:15:24.894Z,11.00
2022-12-25T20:17:51.910Z,11.00
2022-12-25T20:20:18.761Z,11.00
2022-12-25T20:22:45.558Z,11.00
2022-12-25T20:25:13.969Z,11.00
2022-12-25T20:27:40.944Z,11.00
2022-12-25T20:30:08.220Z,11.00
2022-12-25T20:32:35.031Z,11.00
2022-12-25T20:35:01.918Z,11.00
2022-12-25T20:37:28.864Z,11.00
2022-12-25T20:39:55.768Z,11.00
2022-12-25T20:42:22.597Z,11.00
2022-12-25T20:44:49.579Z,11.00
2022-12-25T20:47:16.537Z,11.00
2022-12-25T20:49:43.439Z,11.10
2022-12-25T20:52:10.388Z,11.10
2022-12-25T20:54:37.366Z,11.10
2022-12-25T20:57:05.153Z,11.10
2022-12-25T20:59:37.143Z,11.20
2022-12-25T21:02:07.736Z,11.20
2022-12-25T21:04:34.904Z,11.20
2022-12-25T21:07:02.580Z,11.20
2022-12-25T21:09:29.499Z,11.20
2022-12-25T21:11:59.585Z,11.20
2022-12-25T21:14:29.668Z,11.20
2022-12-25T21:16:57.356Z,11.20
2022-12-25T21:19:24.285Z,11.20
2022-12-25T21:21:51.120Z,11.20
2022-12-25T21:24:17.908Z,11.20
2022-12-25T21:26:48.125Z,11.30
2022-12-25T21:29:16.095Z,11.30
2022-12-25T21:32:01.615Z,11.30
2022-12-25T21:34:30.667Z,11.30
2022-12-25T21:36:57.623Z,11.30
2022-12-25T21:39:24.480Z,11.30
2022-12-25T21:41:52.604Z,11.30
2022-12-25T21:44:19.445Z,11.30
2022-12-25T21:46:46.602Z,11.20
2022-12-25T21:49:33.471Z,11.20
2022-12-25T21:52:09.317Z,11.20
2022-12-25T21:54:37.210Z,11.10
2022-12-25T21:57:05.068Z,11.10
2022-12-25T21:59:31.965Z,11.10
2022-12-25T22:01:59.662Z,11.10
2022-12-25T22:04:27.102Z,11.10
2022-12-25T22:07:12.495Z,11.10
2022-12-25T22:09:39.392Z,11.00
2022-12-25T22:12:33.500Z,11.00
2022-12-25T22:15:06.891Z,11.00
2022-12-25T22:17:58.035Z,11.00
2022-12-25T22:20:38.476Z,11.00
2022-12-25T22:23:05.620Z,11.00
2022-12-25T22:25:32.581Z,11.00
2022-12-25T22:27:59.921Z,11.00
2022-12-25T22:30:30.119Z,11.00
2022-12-25T22:32:57.821Z,11.00
2022-12-25T22:35:24.820Z,11.00
2022-12-25T22:37:53.436Z,11.00
2022-12-25T22:40:20.950Z,11.10
2022-12-25T22:42:48.269Z,11.00
2022-12-25T22:45:15.233Z,11.00
2022-12-25T22:47:43.600Z,11.00
2022-12-25T22:50:12.263Z,11.00
2022-12-25T22:52:39.229Z,11.00
2022-12-25T22:55:07.963Z,11.00
2022-12-25T22:57:35.148Z,11.00
2022-12-25T23:00:02.451Z,11.00
2022-12-25T23:02:29.459Z,11.00
2022-12-25T23:04:57.186Z,11.00
2022-12-25T23:07:23.996Z,11.00
2022-12-25T23:09:50.839Z,11.00
2022-12-25T23:12:36.498Z,11.00
2022-12-25T23:15:03.537Z,11.00
2022-12-25T23:17:50.416Z,11.00
2022-12-25T23:20:35.837Z,11.00
2022-12-25T23:23:21.561Z,11.00
2022-12-25T23:26:07.101Z,11.00
2022-12-25T23:28:53.766Z,11.00
2022-12-25T23:31:27.478Z,10.90
2022-12-25T23:33:54.785Z,10.90
2022-12-25T23:36:21.893Z,10.90
2022-12-25T23:38:48.892Z,10.90
2022-12-25T23:41:15.763Z,10.80
2022-12-25T23:43:42.668Z,10.80
2022-12-25T23:46:09.552Z,10.80
2022-12-25T23:48:36.595Z,10.70
2022-12-25T23:51:05.456Z,10.80
2022-12-25T23:53:32.579Z,10.70
2022-12-25T23:55:59.807Z,10.70
2022-12-25T23:58:28.081Z,10.70
